Time;durP1;ratioP1;P1;durP2;ratioP2;P2;SDS_P1;SDS_P2;PMS_P1;PMS_P2;Temp;Humidity;BMP_temperature;BMP_pressure;BME280_temperature;BME280_humidity;BME280_pressure;Samples;Min_cycle;Max_cycle;Signal;HPM_P1;HPM_P2
2022/03/18 00:00:34;;;;;;;85.95;34.38;;;5.70;82.40;;;;;;5047636;28;22455;-74
2022/03/18 00:03:01;;;;;;;83.15;32.15;;;5.70;82.90;;;;;;5056635;28;20102;-74
2022/03/18 00:05:29;;;;;;;86.65;34.63;;;5.70;81.40;;;;;;5071437;28;20047;-74
2022/03/18 00:07:56;;;;;;;81.78;33.53;;;5.70;81.70;;;;;;5053218;28;20098;-74
2022/03/18 00:10:23;;;;;;;94.68;36.03;;;5.70;82.00;;;;;;5072404;28;20048;-74
2022/03/18 00:12:53;;;;;;;89.30;35.17;;;5.80;81.70;;;;;;5072583;28;20098;-74
2022/03/18 00:15:23;;;;;;;85.35;34.25;;;5.90;81.60;;;;;;5071095;28;20094;-74
2022/03/18 00:17:51;;;;;;;92.15;34.85;;;5.90;80.70;;;;;;5068941;28;20507;-74
2022/03/18 00:20:18;;;;;;;89.10;35.03;;;5.80;80.70;;;;;;5074579;28;20067;-74
2022/03/18 00:22:47;;;;;;;93.40;34.95;;;5.40;82.10;;;;;;5070745;28;20037;-74
2022/03/18 00:25:16;;;;;;;95.40;34.55;;;4.90;84.50;;;;;;5071233;28;20040;-74
2022/03/18 00:27:44;;;;;;;72.47;31.08;;;4.70;86.30;;;;;;5073869;28;22259;-74
2022/03/18 00:30:12;;;;;;;78.75;31.45;;;4.90;85.60;;;;;;5069346;28;20138;-74
2022/03/18 00:32:40;;;;;;;84.60;32.17;;;5.10;84.80;;;;;;5071364;28;20045;-74
2022/03/18 00:35:28;;;;;;;83.93;32.13;;;4.90;84.90;;;;;;5068712;28;20044;-74
2022/03/18 00:37:55;;;;;;;100.30;32.28;;;5.00;85.30;;;;;;5076927;28;20059;-74
2022/03/18 00:40:23;;;;;;;82.45;32.67;;;5.00;86.20;;;;;;5093843;27;21039;-74
2022/03/18 00:42:50;;;;;;;78.75;32.45;;;5.00;86.00;;;;;;5101240;27;20399;-74
2022/03/18 00:45:17;;;;;;;88.13;32.53;;;5.00;86.90;;;;;;5113248;27;20039;-74
2022/03/18 00:53:15;;;;;;;72.00;25.67;;;4.90;88.30;;;;;;5096587;27;20044;-74
2022/03/18 00:55:42;;;;;;;65.45;25.85;;;4.80;88.10;;;;;;5113248;27;20099;-74
2022/03/18 00:58:09;;;;;;;64.97;25.63;;;4.90;87.80;;;;;;5093068;27;20043;-74
2022/03/18 01:00:36;;;;;;;64.70;26.08;;;5.10;86.60;;;;;;5102557;27;20062;-74
2022/03/18 01:03:06;;;;;;;62.83;25.60;;;5.40;85.00;;;;;;5097408;27;20961;-74
2022/03/18 01:05:34;;;;;;;60.08;23.38;;;5.60;83.90;;;;;;5100107;27;20099;-74
2022/03/18 01:08:01;;;;;;;55.92;22.52;;;5.60;83.50;;;;;;5079545;27;20105;-74
2022/03/18 01:10:28;;;;;;;63.45;23.75;;;5.70;82.90;;;;;;5082136;27;20047;-74
2022/03/18 01:12:55;;;;;;;54.72;22.45;;;5.60;83.30;;;;;;5115716;27;20047;-74
2022/03/18 01:15:23;;;;;;;60.03;23.13;;;5.60;83.30;;;;;;5113740;27;20048;-74
2022/03/18 01:17:50;;;;;;;62.90;23.23;;;5.40;83.60;;;;;;5099466;27;20039;-74
2022/03/18 01:20:17;;;;;;;57.50;22.13;;;5.60;83.70;;;;;;5081721;27;20039;-74
2022/03/18 01:22:44;;;;;;;57.80;22.40;;;5.60;83.30;;;;;;5110556;27;20044;-74
2022/03/18 01:25:11;;;;;;;58.22;23.17;;;5.20;84.70;;;;;;5118191;27;20040;-74
2022/03/18 01:27:39;;;;;;;58.92;22.70;;;5.30;84.70;;;;;;5079294;27;20254;-74
2022/03/18 01:30:08;;;;;;;64.35;23.92;;;5.50;83.50;;;;;;5099692;27;20143;-74
2022/03/18 01:32:35;;;;;;;57.13;22.85;;;5.60;83.20;;;;;;5099124;27;20138;-74
2022/03/18 01:35:02;;;;;;;64.30;23.10;;;5.60;82.80;;;;;;5113328;27;20065;-74
2022/03/18 01:37:29;;;;;;;53.78;20.92;;;5.20;84.10;;;;;;5097051;27;20039;-74
2022/03/18 01:39:56;;;;;;;49.95;21.05;;;5.20;85.30;;;;;;5079566;28;20056;-74
2022/03/18 01:42:24;;;;;;;48.97;18.98;;;5.00;86.80;;;;;;5091333;27;20051;-74
2022/03/18 01:44:51;;;;;;;44.83;17.23;;;4.90;87.10;;;;;;5095814;28;20043;-74
2022/03/18 01:47:19;;;;;;;45.05;18.45;;;5.20;86.90;;;;;;5076620;28;20129;-74
2022/03/18 01:49:46;;;;;;;53.03;19.42;;;5.30;86.40;;;;;;5093517;28;20100;-74
2022/03/18 01:52:14;;;;;;;48.85;20.90;;;5.30;86.50;;;;;;5092725;27;20028;-74
2022/03/18 01:54:49;;;;;;;44.30;19.10;;;5.50;85.30;;;;;;5096091;28;20088;-74
2022/03/18 01:57:20;;;;;;;50.03;19.77;;;5.40;85.00;;;;;;5091830;27;20928;-74
2022/03/18 01:59:48;;;;;;;49.45;18.42;;;5.50;84.70;;;;;;5096333;28;20036;-74
2022/03/18 02:02:16;;;;;;;48.05;17.52;;;5.40;85.10;;;;;;5077114;28;20040;-74
2022/03/18 02:04:44;;;;;;;52.45;20.77;;;5.30;84.90;;;;;;5079282;28;20486;-74
2022/03/18 02:07:13;;;;;;;48.25;18.65;;;5.30;84.40;;;;;;5093727;28;20542;-74
2022/03/18 02:09:40;;;;;;;47.40;18.35;;;5.40;83.90;;;;;;5094891;28;20060;-74
2022/03/18 02:12:10;;;;;;;46.00;18.73;;;5.60;82.90;;;;;;5079163;28;20594;-74
2022/03/18 02:14:44;;;;;;;42.05;18.27;;;5.50;82.30;;;;;;5089210;28;20371;-74
2022/03/18 02:17:13;;;;;;;46.17;19.08;;;5.60;81.60;;;;;;5093535;27;20047;-74
2022/03/18 02:19:42;;;;;;;43.35;18.00;;;5.50;81.90;;;;;;5076383;28;20048;-74
2022/03/18 02:22:21;;;;;;;45.72;17.20;;;5.50;81.60;;;;;;5090564;28;20035;-74
2022/03/18 02:24:50;;;;;;;43.13;18.67;;;5.40;81.00;;;;;;5092555;27;20498;-74
2022/03/18 02:27:17;;;;;;;46.65;17.88;;;5.40;81.20;;;;;;5094987;28;20112;-74
2022/03/18 02:29:45;;;;;;;50.28;20.75;;;5.50;80.50;;;;;;5089686;27;20044;-74
2022/03/18 02:32:13;;;;;;;49.47;20.38;;;5.50;79.70;;;;;;5093904;28;20135;-74
2022/03/18 02:34:41;;;;;;;43.17;17.70;;;5.40;79.70;;;;;;5093661;28;21116;-74
2022/03/18 02:37:08;;;;;;;49.95;18.75;;;5.30;80.90;;;;;;5091640;27;20039;-74
2022/03/18 02:39:35;;;;;;;47.53;18.67;;;5.40;80.20;;;;;;5093787;27;20035;-74
2022/03/18 02:42:04;;;;;;;48.58;19.45;;;5.30;80.10;;;;;;5080469;27;20042;-74
2022/03/18 02:44:32;;;;;;;50.83;18.05;;;5.10;80.90;;;;;;5097240;27;20058;-74
2022/03/18 02:46:59;;;;;;;44.38;17.52;;;4.50;83.60;;;;;;5109168;27;20031;-74
2022/03/18 02:49:28;;;;;;;45.53;16.52;;;4.20;85.20;;;;;;5099419;27;20057;-73
2022/03/18 02:51:56;;;;;;;42.47;16.77;;;4.30;85.00;;;;;;5111302;27;20051;-74
2022/03/18 02:54:23;;;;;;;48.92;18.88;;;4.60;83.70;;;;;;5095262;27;20046;-74
2022/03/18 02:56:50;;;;;;;47.28;18.42;;;4.70;82.90;;;;;;5080556;27;20039;-74
2022/03/18 02:59:17;;;;;;;52.10;17.38;;;4.90;81.40;;;;;;5112777;27;20084;-73
2022/03/18 03:01:44;;;;;;;37.65;15.25;;;5.10;80.50;;;;;;5097454;27;20075;-74
2022/03/18 03:04:13;;;;;;;39.08;16.70;;;5.00;79.90;;;;;;5095246;27;20043;-74
2022/03/18 03:09:26;;;;;;;37.78;15.93;;;5.40;78.40;;;;;;5086247;27;20050;-74
2022/03/18 03:11:53;;;;;;;38.63;16.40;;;5.50;77.30;;;;;;5079260;27;20041;-73
2022/03/18 03:14:20;;;;;;;37.72;16.63;;;5.30;78.40;;;;;;5090214;27;20100;-74
2022/03/18 03:16:48;;;;;;;41.33;16.35;;;5.10;79.30;;;;;;5080374;27;20038;-74
2022/03/18 03:19:15;;;;;;;42.40;17.52;;;5.10;79.30;;;;;;5095761;28;20052;-74
2022/03/18 03:21:42;;;;;;;39.22;17.10;;;5.10;79.20;;;;;;5113317;27;20140;-73
2022/03/18 03:24:09;;;;;;;36.28;15.57;;;5.20;78.40;;;;;;5107543;27;20069;-74
2022/03/18 03:26:37;;;;;;;42.92;16.92;;;5.40;77.80;;;;;;5093001;27;20053;-74
2022/03/18 03:29:04;;;;;;;36.95;15.43;;;5.40;76.90;;;;;;5096119;27;20039;-74
2022/03/18 03:31:31;;;;;;;37.00;15.48;;;5.30;76.50;;;;;;5114070;27;20043;-74
2022/03/18 03:33:59;;;;;;;33.83;14.48;;;5.20;76.80;;;;;;5097519;27;20047;-74
2022/03/18 03:36:26;;;;;;;34.95;13.93;;;5.20;75.70;;;;;;5096313;28;20433;-74
2022/03/18 03:38:53;;;;;;;27.33;12.88;;;5.10;74.40;;;;;;5094152;27;20044;-74
2022/03/18 03:41:22;;;;;;;33.83;12.70;;;5.00;74.90;;;;;;5111760;27;20860;-74
2022/03/18 03:43:50;;;;;;;27.02;11.48;;;5.00;74.30;;;;;;5111895;27;20050;-74
2022/03/18 03:46:17;;;;;;;31.80;11.43;;;4.90;73.60;;;;;;5080235;27;20104;-74
2022/03/18 03:48:44;;;;;;;25.42;11.88;;;4.90;72.60;;;;;;5093692;28;20654;-74
2022/03/18 03:51:11;;;;;;;28.38;11.20;;;5.00;71.70;;;;;;5096155;27;20047;-73
2022/03/18 03:53:38;;;;;;;27.88;10.90;;;5.20;70.60;;;;;;5097381;27;20054;-74
2022/03/18 03:56:05;;;;;;;21.77;8.88;;;5.10;69.90;;;;;;5111296;27;20513;-74
2022/03/18 03:58:32;;;;;;;26.83;9.95;;;5.10;69.30;;;;;;5095941;27;20092;-74
2022/03/18 04:00:59;;;;;;;23.10;9.25;;;4.90;69.30;;;;;;5080641;27;20057;-74
2022/03/18 04:03:28;;;;;;;18.67;8.90;;;5.10;68.00;;;;;;5111571;27;20035;-75
2022/03/18 04:05:55;;;;;;;22.52;9.65;;;5.20;67.50;;;;;;5096831;27;20047;-74
2022/03/18 04:08:22;;;;;;;26.77;9.15;;;5.20;67.20;;;;;;5078783;27;20047;-74
2022/03/18 04:10:49;;;;;;;27.13;8.90;;;5.20;66.70;;;;;;5099114;27;20047;-74
2022/03/18 04:13:16;;;;;;;20.33;8.70;;;5.10;66.60;;;;;;5097625;27;20043;-74
2022/03/18 04:15:43;;;;;;;20.95;7.72;;;5.10;66.50;;;;;;5114323;27;20763;-74
2022/03/18 04:18:11;;;;;;;16.42;7.82;;;5.20;65.80;;;;;;5116734;27;20433;-74
2022/03/18 04:20:38;;;;;;;20.42;7.63;;;5.30;65.20;;;;;;5103622;27;20046;-74
2022/03/18 04:23:05;;;;;;;14.52;6.25;;;5.30;65.10;;;;;;5113248;27;20092;-74
2022/03/18 04:25:32;;;;;;;20.45;7.68;;;5.40;64.30;;;;;;5099237;27;20545;-74
2022/03/18 04:27:59;;;;;;;20.38;7.80;;;5.40;64.00;;;;;;5083841;27;20088;-74
2022/03/18 04:30:26;;;;;;;20.60;7.88;;;5.40;63.20;;;;;;5100125;27;20048;-74
2022/03/18 04:32:53;;;;;;;19.40;7.60;;;5.40;63.30;;;;;;5102229;27;20075;-74
2022/03/18 04:35:21;;;;;;;21.25;8.68;;;5.30;62.90;;;;;;5114619;27;20168;-75
2022/03/18 04:37:49;;;;;;;19.13;7.43;;;5.30;63.50;;;;;;5098161;27;20089;-75
2022/03/18 04:40:17;;;;;;;19.55;7.63;;;5.30;63.80;;;;;;5097116;27;20047;-74
2022/03/18 04:42:44;;;;;;;20.15;7.70;;;5.30;63.30;;;;;;5103052;27;20051;-74
2022/03/18 04:45:13;;;;;;;22.08;8.15;;;5.10;63.80;;;;;;5103243;27;20039;-74
2022/03/18 04:47:40;;;;;;;17.38;6.85;;;5.10;63.50;;;;;;5086436;27;20577;-74
2022/03/18 04:50:08;;;;;;;15.70;7.15;;;5.20;63.50;;;;;;5086111;27;20047;-74
2022/03/18 04:52:35;;;;;;;17.95;7.60;;;5.10;64.70;;;;;;5102779;27;20051;-74
2022/03/18 04:55:04;;;;;;;15.90;7.15;;;5.10;63.90;;;;;;5102848;27;20043;-74
2022/03/18 04:57:31;;;;;;;19.20;7.47;;;5.40;63.40;;;;;;5116716;27;20043;-74
2022/03/18 04:59:58;;;;;;;17.70;7.50;;;5.40;63.20;;;;;;5100408;27;20042;-74
2022/03/18 05:02:26;;;;;;;20.95;7.95;;;5.30;63.10;;;;;;5096829;27;20040;-74
2022/03/18 05:04:54;;;;;;;16.63;7.25;;;5.20;62.80;;;;;;5101336;27;20493;-74
2022/03/18 05:07:22;;;;;;;16.65;7.40;;;5.20;62.80;;;;;;5102255;27;20043;-74
2022/03/18 05:09:50;;;;;;;18.08;7.00;;;5.10;63.10;;;;;;5079151;27;20072;-74
2022/03/18 05:12:17;;;;;;;15.48;6.30;;;5.20;62.50;;;;;;5099412;27;22228;-74
2022/03/18 05:14:51;;;;;;;15.38;6.90;;;5.30;61.50;;;;;;5081222;27;20045;-74
2022/03/18 05:17:18;;;;;;;18.50;6.45;;;5.50;61.20;;;;;;5098700;27;20501;-74
2022/03/18 05:19:45;;;;;;;16.50;7.40;;;5.40;60.70;;;;;;5101095;27;20054;-74
2022/03/18 05:22:12;;;;;;;11.85;5.50;;;5.40;60.20;;;;;;5115060;27;20039;-74
2022/03/18 05:24:39;;;;;;;12.65;5.80;;;5.50;60.30;;;;;;5099369;27;20118;-74
2022/03/18 05:27:06;;;;;;;18.02;6.28;;;5.30;60.20;;;;;;5098058;27;20714;-74
2022/03/18 05:29:33;;;;;;;14.57;6.38;;;5.30;60.40;;;;;;5114574;27;20035;-74
2022/03/18 05:32:01;;;;;;;14.95;6.05;;;5.30;60.80;;;;;;5098289;27;20054;-75
2022/03/18 05:34:29;;;;;;;16.50;5.90;;;5.60;60.40;;;;;;5099608;27;20204;-74
2022/03/18 05:36:57;;;;;;;13.93;5.75;;;5.60;60.20;;;;;;5115891;27;20298;-74
2022/03/18 05:39:24;;;;;;;15.07;6.55;;;5.50;60.00;;;;;;5098101;27;20039;-74
2022/03/18 05:41:51;;;;;;;13.45;6.20;;;5.70;60.20;;;;;;5114120;27;20594;-74
2022/03/18 05:44:18;;;;;;;10.70;5.15;;;5.60;59.70;;;;;;5101761;27;20047;-74
2022/03/18 05:46:46;;;;;;;14.63;5.93;;;5.60;59.60;;;;;;5101598;27;20125;-74
2022/03/18 05:49:14;;;;;;;13.40;5.78;;;5.60;60.00;;;;;;5116217;27;20043;-74
2022/03/18 05:51:41;;;;;;;15.30;5.15;;;5.50;59.80;;;;;;5113130;27;20041;-73
2022/03/18 05:54:08;;;;;;;15.73;6.72;;;5.60;59.40;;;;;;5101271;27;20040;-74
2022/03/18 05:56:52;;;;;;;15.07;6.50;;;5.60;59.30;;;;;;5096498;27;20043;-74
2022/03/18 05:59:24;;;;;;;14.10;5.63;;;5.70;59.30;;;;;;5099317;27;20068;-75
2022/03/18 06:01:54;;;;;;;17.27;6.22;;;5.70;58.90;;;;;;5111258;27;20039;-75
2022/03/18 06:04:22;;;;;;;20.00;7.72;;;5.60;59.10;;;;;;5100328;27;20134;-75
2022/03/18 06:06:50;;;;;;;17.55;6.97;;;5.60;59.30;;;;;;5097382;27;20319;-74
2022/03/18 06:12:05;;;;;;;13.63;5.85;;;5.60;59.10;;;;;;5095492;27;20762;-74
2022/03/18 06:14:32;;;;;;;13.18;6.20;;;5.80;59.10;;;;;;5097087;27;20035;-74
2022/03/18 06:17:02;;;;;;;14.52;6.18;;;5.70;58.90;;;;;;5096397;27;20044;-74
2022/03/18 06:19:30;;;;;;;16.85;5.43;;;5.80;58.90;;;;;;5098924;27;20042;-74
2022/03/18 06:21:58;;;;;;;13.00;5.18;;;5.80;58.10;;;;;;5092332;27;20081;-74
2022/03/18 06:24:26;;;;;;;11.68;5.22;;;5.80;57.80;;;;;;5096821;27;20027;-76
2022/03/18 06:26:53;;;;;;;16.70;6.10;;;5.90;57.70;;;;;;5079084;27;22532;-75
2022/03/18 06:29:21;;;;;;;12.65;6.22;;;5.70;57.50;;;;;;5078227;27;20059;-75
2022/03/18 06:31:49;;;;;;;18.58;6.47;;;5.80;57.80;;;;;;5111274;27;20058;-75
2022/03/18 06:34:17;;;;;;;19.10;8.05;;;5.80;58.10;;;;;;5116542;27;20057;-74
2022/03/18 06:36:44;;;;;;;15.02;6.70;;;5.70;58.50;;;;;;5110780;27;20043;-74
2022/03/18 06:39:12;;;;;;;21.38;8.48;;;5.90;57.80;;;;;;5094792;27;20178;-75
2022/03/18 06:41:39;;;;;;;18.30;6.32;;;5.90;57.50;;;;;;5058166;28;20392;-75
2022/03/18 06:44:08;;;;;;;13.40;5.93;;;6.00;57.60;;;;;;5072662;28;20094;-75
2022/03/18 06:46:37;;;;;;;13.57;6.00;;;6.20;57.10;;;;;;5055437;28;20043;-75
2022/03/18 06:49:05;;;;;;;15.82;5.88;;;6.30;56.80;;;;;;5072655;28;20040;-74
2022/03/18 06:51:33;;;;;;;18.30;6.28;;;6.30;56.70;;;;;;5072917;28;20032;-74
2022/03/18 06:54:00;;;;;;;15.25;6.13;;;6.20;56.90;;;;;;5056247;28;20068;-74
2022/03/18 06:56:28;;;;;;;11.32;6.43;;;6.10;56.50;;;;;;5053220;28;20081;-74
2022/03/18 06:58:55;;;;;;;15.75;6.18;;;6.20;56.70;;;;;;5054475;28;20067;-74
2022/03/18 07:01:23;;;;;;;18.42;6.55;;;6.20;56.60;;;;;;5071194;28;20034;-74
2022/03/18 07:03:51;;;;;;;17.83;6.30;;;6.20;56.90;;;;;;5056639;28;20048;-75
2022/03/18 07:06:18;;;;;;;18.83;7.03;;;6.10;56.90;;;;;;5074247;28;20575;-74
2022/03/18 07:08:45;;;;;;;15.25;6.18;;;6.30;57.00;;;;;;5069628;28;20048;-74
2022/03/18 07:11:14;;;;;;;16.77;5.38;;;6.40;56.20;;;;;;5071063;28;20025;-74
2022/03/18 07:13:43;;;;;;;15.90;5.85;;;6.40;56.50;;;;;;5069461;28;20047;-74
2022/03/18 07:18:57;;;;;;;11.63;5.38;;;6.50;56.40;;;;;;5072163;28;20075;-74
2022/03/18 07:21:24;;;;;;;12.68;5.15;;;6.50;57.10;;;;;;5074576;28;20098;-74
2022/03/18 07:23:51;;;;;;;17.08;6.47;;;6.60;56.80;;;;;;5082385;27;20946;-74
2022/03/18 07:26:19;;;;;;;15.45;5.90;;;6.50;56.80;;;;;;5069915;28;20036;-74
2022/03/18 07:28:46;;;;;;;19.02;6.57;;;6.60;56.80;;;;;;5074817;28;20029;-74
2022/03/18 07:31:13;;;;;;;12.70;5.25;;;6.70;56.70;;;;;;5067320;28;20047;-75
2022/03/18 07:33:40;;;;;;;14.88;5.50;;;6.70;57.50;;;;;;5065748;28;20042;-75
2022/03/18 07:36:07;;;;;;;12.70;5.88;;;6.60;57.20;;;;;;5068572;28;20395;-75
2022/03/18 07:38:35;;;;;;;13.45;5.65;;;6.60;57.70;;;;;;5071466;28;20040;-75
2022/03/18 07:41:02;;;;;;;14.82;6.22;;;6.70;57.40;;;;;;5092088;27;20563;-75
2022/03/18 07:43:29;;;;;;;15.52;6.07;;;6.70;57.70;;;;;;5094321;27;20042;-75
2022/03/18 07:45:57;;;;;;;14.50;6.50;;;6.80;57.40;;;;;;5077315;27;20120;-75
2022/03/18 07:48:26;;;;;;;16.35;5.70;;;7.00;57.30;;;;;;5110601;27;20042;-75
2022/03/18 07:50:55;;;;;;;13.85;6.32;;;6.80;57.70;;;;;;5095141;27;21429;-75
2022/03/18 07:53:22;;;;;;;16.38;6.95;;;7.00;57.70;;;;;;5094771;27;20506;-74
2022/03/18 07:55:49;;;;;;;14.50;6.00;;;7.00;58.30;;;;;;5084142;28;20039;-75
2022/03/18 07:58:17;;;;;;;17.13;6.28;;;6.90;58.70;;;;;;5075305;27;20061;-75
2022/03/18 08:00:45;;;;;;;14.98;6.53;;;7.00;59.00;;;;;;5077989;27;20596;-75
2022/03/18 08:03:12;;;;;;;16.63;6.65;;;7.10;59.20;;;;;;5095306;28;21369;-74
2022/03/18 08:05:41;;;;;;;15.20;6.82;;;7.20;58.80;;;;;;5088626;27;20070;-75
2022/03/18 08:08:08;;;;;;;18.00;6.43;;;7.10;59.20;;;;;;5111704;27;20040;-75
2022/03/18 08:10:37;;;;;;;15.52;7.18;;;7.30;59.50;;;;;;5108167;27;20054;-75
2022/03/18 08:13:04;;;;;;;16.30;7.07;;;7.40;59.60;;;;;;5093686;28;20047;-75
2022/03/18 08:15:32;;;;;;;17.13;7.90;;;7.30;59.70;;;;;;5083273;28;20075;-74
2022/03/18 08:17:59;;;;;;;20.80;8.70;;;7.30;59.30;;;;;;5094164;28;20089;-74
2022/03/18 08:20:26;;;;;;;17.55;8.00;;;7.30;59.70;;;;;;5089765;27;20039;-74
2022/03/18 08:22:54;;;;;;;15.93;7.78;;;7.50;60.30;;;;;;5078964;27;20464;-74
2022/03/18 08:25:21;;;;;;;14.70;6.55;;;7.50;60.40;;;;;;5107328;27;20074;-74
2022/03/18 08:27:49;;;;;;;19.52;7.25;;;7.50;60.90;;;;;;5094540;28;20161;-74
2022/03/18 08:30:17;;;;;;;13.98;6.13;;;7.60;60.80;;;;;;5093837;28;20993;-75
2022/03/18 08:32:46;;;;;;;14.05;6.78;;;7.60;61.20;;;;;;5093516;28;20050;-75
2022/03/18 08:35:13;;;;;;;19.77;7.30;;;7.60;61.50;;;;;;5077469;27;20039;-75
2022/03/18 08:37:56;;;;;;;19.17;7.68;;;7.80;61.00;;;;;;5094031;28;20787;-75
2022/03/18 08:40:28;;;;;;;17.25;7.40;;;7.90;61.30;;;;;;5077811;27;20108;-75
2022/03/18 08:42:56;;;;;;;18.70;7.10;;;7.80;60.60;;;;;;5109444;27;20496;-75
2022/03/18 08:45:25;;;;;;;17.35;7.75;;;7.70;61.70;;;;;;5107617;27;20050;-75
2022/03/18 08:47:56;;;;;;;17.48;7.25;;;7.80;61.40;;;;;;5097373;27;20134;-75
2022/03/18 08:50:24;;;;;;;15.27;7.35;;;7.60;61.70;;;;;;5080169;27;20050;-75
2022/03/18 08:52:53;;;;;;;18.08;7.63;;;7.80;62.10;;;;;;5111272;27;20050;-75
2022/03/18 08:55:21;;;;;;;19.83;7.13;;;7.90;62.50;;;;;;5110966;27;20051;-75
2022/03/18 08:57:49;;;;;;;17.10;7.07;;;7.90;62.80;;;;;;5110940;27;20047;-75
2022/03/18 09:00:18;;;;;;;18.92;7.85;;;7.90;63.00;;;;;;5098953;27;20035;-75
2022/03/18 09:02:47;;;;;;;17.60;7.43;;;8.00;63.20;;;;;;5079201;27;20062;-75
2022/03/18 09:05:15;;;;;;;18.98;8.30;;;8.00;62.90;;;;;;5094305;27;20397;-75
2022/03/18 09:07:42;;;;;;;19.33;8.13;;;8.00;63.80;;;;;;5110198;27;20036;-75
2022/03/18 09:10:12;;;;;;;20.58;7.90;;;8.00;64.80;;;;;;5099998;27;21376;-74
2022/03/18 09:12:51;;;;;;;17.55;7.63;;;8.20;64.90;;;;;;5096093;27;22433;-74
2022/03/18 09:15:18;;;;;;;20.05;8.20;;;8.30;63.40;;;;;;5111249;27;20035;-74
2022/03/18 09:17:46;;;;;;;19.23;7.78;;;8.30;62.80;;;;;;5096187;27;20054;-74
2022/03/18 09:20:13;;;;;;;19.27;8.27;;;8.40;63.00;;;;;;5114701;27;20604;-75
2022/03/18 09:22:40;;;;;;;14.80;8.10;;;8.50;64.40;;;;;;5096912;27;20043;-75
2022/03/18 09:25:08;;;;;;;17.73;8.50;;;8.50;64.10;;;;;;5100601;27;20096;-74
2022/03/18 09:27:36;;;;;;;21.42;8.60;;;8.40;64.20;;;;;;5098899;27;20043;-75
2022/03/18 09:30:09;;;;;;;19.80;8.75;;;8.50;64.40;;;;;;5101833;27;20161;-75
2022/03/18 09:32:36;;;;;;;17.80;7.95;;;8.60;64.50;;;;;;5082076;27;20047;-75
2022/03/18 09:35:03;;;;;;;24.40;9.38;;;8.60;64.30;;;;;;5096523;27;20086;-75
2022/03/18 09:37:30;;;;;;;18.05;8.05;;;8.70;64.30;;;;;;5095834;27;20043;-75
2022/03/18 09:40:00;;;;;;;20.17;8.77;;;8.90;63.70;;;;;;5109552;27;20054;-75
2022/03/18 09:42:57;;;;;;;18.40;7.95;;;8.90;63.50;;;;;;5114191;27;20853;-75
2022/03/18 09:45:30;;;;;;;20.13;8.98;;;8.80;64.80;;;;;;5114107;27;20040;-75
2022/03/18 09:48:03;;;;;;;18.40;8.40;;;8.70;64.40;;;;;;5095227;27;20528;-75
2022/03/18 09:50:30;;;;;;;17.75;8.45;;;8.80;64.60;;;;;;5082235;27;20051;-75
2022/03/18 09:52:58;;;;;;;17.35;8.95;;;8.90;64.20;;;;;;5111999;27;20044;-75
2022/03/18 09:55:26;;;;;;;20.98;8.65;;;8.90;64.30;;;;;;5113582;27;21577;-75
2022/03/18 09:57:53;;;;;;;21.20;9.13;;;9.10;63.40;;;;;;5097528;27;20050;-75
2022/03/18 10:00:26;;;;;;;23.10;9.00;;;9.30;63.10;;;;;;5103721;27;22306;-75
2022/03/18 10:03:11;;;;;;;28.73;9.55;;;9.20;63.20;;;;;;5098021;27;20039;-75
2022/03/18 10:05:58;;;;;;;22.10;9.32;;;9.10;64.30;;;;;;5081588;27;20667;-75
2022/03/18 10:08:50;;;;;;;21.83;9.32;;;9.30;65.00;;;;;;5093096;27;20071;-74
2022/03/18 10:11:23;;;;;;;23.63;10.50;;;9.40;64.50;;;;;;5093505;27;20046;-74
2022/03/18 10:13:57;;;;;;;23.35;9.93;;;9.20;63.80;;;;;;5095981;27;20092;-74
2022/03/18 10:16:44;;;;;;;21.17;10.10;;;9.30;64.10;;;;;;5096178;27;20096;-75
2022/03/18 10:19:17;;;;;;;26.45;11.15;;;9.30;64.40;;;;;;5111030;27;20041;-75
2022/03/18 10:22:02;;;;;;;22.83;10.88;;;9.50;64.30;;;;;;5097478;27;20600;-75
2022/03/18 10:24:33;;;;;;;26.05;10.98;;;9.60;63.40;;;;;;5077511;27;20054;-74
2022/03/18 10:27:12;;;;;;;26.00;11.52;;;9.70;63.30;;;;;;5115695;27;20066;-75
2022/03/18 10:29:50;;;;;;;25.88;12.10;;;9.90;62.70;;;;;;5098360;27;20580;-74
2022/03/18 10:32:18;;;;;;;28.45;12.40;;;9.80;62.30;;;;;;5116113;27;20043;-74
2022/03/18 10:37:50;;;;;;;24.27;11.38;;;9.80;63.20;;;;;;5093285;27;20048;-75
2022/03/18 10:40:19;;;;;;;;;;;10.10;62.40;;;;;;5093162;27;20058;-72
2022/03/18 10:42:58;;;;;;;38.28;14.50;;;10.20;62.80;;;;;;5090854;27;19923;-73
2022/03/18 10:45:26;;;;;;;25.42;12.25;;;10.30;63.00;;;;;;5087757;27;20647;-75
2022/03/18 10:47:53;;;;;;;25.02;12.20;;;10.40;63.00;;;;;;5076233;27;20043;-75
2022/03/18 10:50:23;;;;;;;24.15;10.52;;;10.40;63.90;;;;;;5095785;27;20043;-74
2022/03/18 10:52:53;;;;;;;24.27;10.60;;;10.40;64.40;;;;;;5074742;27;20051;-75
2022/03/18 10:55:29;;;;;;;20.75;9.90;;;10.40;63.90;;;;;;5107599;27;20047;-74
2022/03/18 10:57:59;;;;;;;20.58;9.98;;;10.40;64.20;;;;;;5097948;27;20035;-74
2022/03/18 11:00:48;;;;;;;24.38;10.25;;;10.50;65.10;;;;;;5092043;27;20046;-74
2022/03/18 11:03:17;;;;;;;16.17;8.25;;;10.70;64.50;;;;;;5097322;27;20039;-74
2022/03/18 11:05:51;;;;;;;19.10;9.13;;;10.90;63.80;;;;;;5112895;27;20114;-74
2022/03/18 11:08:25;;;;;;;20.55;8.98;;;10.80;62.80;;;;;;5111413;27;22145;-74
2022/03/18 11:13:40;;;;;;;21.90;10.43;;;10.90;63.30;;;;;;5095061;27;20058;-74
2022/03/18 11:16:11;;;;;;;25.58;8.80;;;10.90;62.20;;;;;;5096017;27;20664;-74
2022/03/18 11:18:39;;;;;;;23.55;9.95;;;11.00;62.30;;;;;;5095039;27;20048;-74
2022/03/18 11:21:09;;;;;;;19.38;7.88;;;11.00;61.50;;;;;;5094185;27;20054;-74
2022/03/18 11:23:38;;;;;;;19.00;9.07;;;11.00;62.30;;;;;;5110194;27;20093;-74
2022/03/18 11:26:07;;;;;;;22.38;9.55;;;11.00;61.90;;;;;;5111863;27;20031;-74
2022/03/18 11:28:34;;;;;;;22.35;10.48;;;11.20;61.30;;;;;;5075961;27;20075;-74
2022/03/18 11:31:07;;;;;;;19.63;9.60;;;11.30;60.50;;;;;;5084868;27;20047;-74
2022/03/18 11:33:37;;;;;;;18.55;9.70;;;11.40;59.80;;;;;;5094452;27;20043;-74
2022/03/18 11:36:06;;;;;;;21.85;9.63;;;11.60;59.80;;;;;;5091257;27;20459;-73
2022/03/18 11:38:57;;;;;;;20.27;8.60;;;11.80;59.60;;;;;;5099482;27;20461;-74
2022/03/18 11:41:26;;;;;;;18.15;8.80;;;11.70;59.60;;;;;;5111018;27;20052;-74
2022/03/18 11:43:54;;;;;;;20.50;9.50;;;11.50;60.50;;;;;;5107551;27;20116;-74
2022/03/18 11:46:25;;;;;;;19.08;8.57;;;11.70;61.40;;;;;;5091930;27;20518;-74
2022/03/18 11:48:55;;;;;;;21.30;9.65;;;12.00;58.60;;;;;;5091695;27;20040;-74
2022/03/18 11:51:42;;;;;;;19.90;9.45;;;12.10;58.50;;;;;;5076452;27;20062;-74
2022/03/18 11:54:16;;;;;;;22.48;10.25;;;12.30;58.10;;;;;;5113167;27;20122;-74
2022/03/18 11:56:48;;;;;;;19.38;9.38;;;12.40;59.10;;;;;;5098948;27;20047;-74
2022/03/18 11:59:24;;;;;;;18.88;8.68;;;12.50;57.50;;;;;;5113397;27;20046;-74
2022/03/18 12:02:04;;;;;;;20.85;9.38;;;12.40;58.20;;;;;;5112810;27;20076;-74
2022/03/18 12:04:38;;;;;;;22.13;9.60;;;12.40;57.70;;;;;;5094046;27;20039;-75
2022/03/18 12:07:15;;;;;;;21.75;10.38;;;12.40;58.00;;;;;;5094807;28;20043;-74
2022/03/18 12:10:05;;;;;;;20.23;9.68;;;12.40;58.60;;;;;;5092839;28;20076;-74
2022/03/18 12:12:44;;;;;;;23.80;10.45;;;12.70;56.90;;;;;;5076912;27;20050;-76
2022/03/18 12:15:19;;;;;;;20.15;10.27;;;12.70;56.70;;;;;;5107693;28;20035;-73
2022/03/18 12:17:54;;;;;;;21.42;9.45;;;12.70;56.50;;;;;;5109857;27;20694;-73
2022/03/18 12:20:30;;;;;;;19.27;9.85;;;12.60;56.20;;;;;;5104923;27;20039;-73
2022/03/18 12:23:01;;;;;;;22.60;10.05;;;12.60;56.80;;;;;;5108256;28;20043;-73
2022/03/18 12:25:29;;;;;;;21.98;9.85;;;12.50;56.80;;;;;;5096313;28;20039;-73
2022/03/18 12:31:13;;;;;;;20.75;9.82;;;12.60;56.90;;;;;;5111226;27;20120;-74
2022/03/18 12:33:41;;;;;;;22.75;10.05;;;12.40;56.80;;;;;;5098689;27;20047;-73
2022/03/18 12:36:21;;;;;;;21.35;9.43;;;12.50;56.80;;;;;;5116796;27;20094;-73
2022/03/18 12:39:14;;;;;;;21.83;9.70;;;12.60;56.90;;;;;;5090181;27;20505;-74
2022/03/18 12:42:12;;;;;;;21.83;9.90;;;12.80;56.60;;;;;;5113445;27;20078;-74
2022/03/18 12:44:45;;;;;;;21.08;9.93;;;12.90;55.90;;;;;;5110339;27;20227;-74
2022/03/18 12:47:13;;;;;;;21.05;10.70;;;13.10;56.80;;;;;;5116991;27;20049;-74
2022/03/18 12:49:40;;;;;;;20.23;10.55;;;13.10;56.00;;;;;;5116519;27;20039;-74
2022/03/18 12:52:12;;;;;;;21.67;9.43;;;13.00;55.30;;;;;;5098176;27;20119;-74
2022/03/18 12:55:02;;;;;;;24.73;11.68;;;13.10;55.40;;;;;;5116093;27;20043;-76
2022/03/18 12:57:33;;;;;;;21.77;10.15;;;13.00;55.50;;;;;;5113519;27;20118;-74
2022/03/18 13:00:00;;;;;;;23.05;11.05;;;13.10;55.00;;;;;;5096006;27;20046;-74
2022/03/18 13:02:51;;;;;;;20.30;10.52;;;13.00;55.70;;;;;;5113793;27;20043;-74
2022/03/18 13:05:19;;;;;;;20.08;10.02;;;13.10;56.00;;;;;;5081369;27;20100;-74
2022/03/18 13:07:49;;;;;;;20.98;10.20;;;13.10;54.90;;;;;;5100344;27;20699;-74
2022/03/18 13:10:21;;;;;;;26.73;11.73;;;13.10;55.40;;;;;;5101580;27;20039;-73
2022/03/18 13:12:48;;;;;;;25.98;13.55;;;13.10;54.90;;;;;;5078574;27;20526;-74
2022/03/18 13:15:20;;;;;;;24.60;11.45;;;13.00;55.40;;;;;;5093609;27;20043;-74